LJLJ/LJU METAR and TAF weather

Enter ICAO airport designator
Station Type Date Time Source
LJLJ METAR 2019/02/21 16:30 UTC NOAA

LJLJ 211630Z VRB01KT CAVOK 08/04 Q1024 NOSIG


Station Type Date Time Source
LJLJ Decoded METAR 2019/02/21 16:30 UTC NOAA

Ljubljana / Brnik, Slovenia (LJLJ) 46-13N 014-29E 362M
Feb 21, 2019 - 11:30 AM EST / 2019.02.21 1630 UTC
Wind: Variable at 1 MPH (1 KT):0
Visibility: greater than 7 mile(s):0
Temperature: 46 F (8 C)
Dew Point: 39 F (4 C)
Relative Humidity: 75%
Pressure (altimeter): 30.24 in. Hg (1024 hPa)
ob: LJLJ 211630Z VRB01KT CAVOK 08/04 Q1024 NOSIG
cycle: 16

Station Type Date Time Source
LJLJ TAF 2019/02/21 15:04 UTC NOAA

TAF LJLJ 211400Z 2115/2215 10004KT CAVOK
BECMG 2116/2118 30003KT
BECMG 2205/2208 FEW050 SCT075 BKN130
TEMPO 2212/2215 15004KT


Example: see airport list